logo
App data

The Guild Gold Edition

It’s the year 1400- the late Middle Ages. Europe sees the dawn of the golden age of the new departures and the free spirit. Under the rule of the bourgeoisie and businessmen, more and more towns are emerging from the clutches of the aristocracy and are achieving independence, power and wealth.
Store | Hub | SteamDB
Developer: 4HEAD Studios Publisher: THQ Nordic
Genre: Simulation, Strategy
Languages: English, German
Tags: Simulation (39), Strategy (39), Economy (20), Medieval (18), Management (8)
Category: Single-player, Multi-player
Release date: Nov 18, 2002
Price: $9.99
Old userscore: 71% Metascore: 82%
Owners: 100,000 .. 200,000
Followers: 1,268
Peak concurrent players yesterday: 16
Playtime total: 00:17 (average) 00:22 (median)

Steam Spy is still in beta, so expect major bugs.

Owners data:

Access restricted.

This feature is only available to users with special access rights. Sorry.

If you want to proceed, you need to register or log in first and then back Steam Spy on Patreon. Look for Indie or Pro pledge.

Don't forget to use the same email as on Steam Spy!

Audience in 2 weeks:

Access restricted.

This feature is only available to users with special access rights. Sorry.

If you want to proceed, you need to register or log in first and then back Steam Spy on Patreon. Look for Indie or Pro pledge.

Don't forget to use the same email as on Steam Spy!

Peak daily concurrent players:

CCU data courtesy of SteamDB. Used with permission.

Hourly concurrent players:

Followers over time

Access restricted.

This feature is only available to users with special access rights. Sorry.

If you want to proceed, you need to register or log in first and then back Steam Spy on Patreon. Look for Indie or Pro pledge.

Don't forget to use the same email as on Steam Spy!

Views for top 50 videos on YouTube for this game:

Games similar to this one:

# Game Release date
Price
Score rank
(Userscore / Metascore)
Owners
Players
Playtime (Median)
1 Legends of Callasia Jun 10, 2016 $14.99N/A (N/A)50,000 .. 100,0000%00:00 (00:00)
2 Crown and Council Jan 27, 2017 FreeN/A (N/A)100,000 .. 200,0000%00:00 (00:00)
3 Out of Ammo Sep 14, 2016 $9.99N/A (N/A)0 .. 20,0000%00:00 (00:00)
4 TableTop Soccer Apr 22, 2016 $0.99N/A (N/A)0 .. 20,0000%00:00 (00:00)
5 Cthulhu Realms Jul 1, 2016 N/AN/A (N/A)50,000 .. 100,0000%00:00 (00:00)
6 Master of Orion 3 Aug 25, 2016 $9.99N/A (N/A/64%)200,000 .. 500,0000%00:00 (00:00)
7 Quarantine May 24, 2017 $9.99N/A (N/A)20,000 .. 50,0000%00:00 (00:00)
8 Codename: Panzers, Phase Two Jul 21, 2005 $14.99N/A (N/A/80%)0 .. 20,0000%00:00 (00:00)
9 ROD: Revolt Of Defense Aug 12, 2016 $0.99N/A (N/A)20,000 .. 50,0000%00:00 (00:00)
10 Pang Adventures Apr 18, 2016 $9.99N/A (N/A)20,000 .. 50,0000%00:00 (00:00)
11 Sudden Strike 3 May 22, 2017 $5.99N/A (N/A)20,000 .. 50,0000%00:00 (00:00)
12 Cosmic Trip May 24, 2017 $19.99N/A (N/A)20,000 .. 50,0000%00:00 (00:00)
13 Steam 360 Video Player May 10, 2017 FreeN/A (N/A)20,000 .. 50,0000%00:00 (00:00)
14 Supreme Ruler 2020 Gold Jun 17, 2008 $9.99N/A (N/A/65%)20,000 .. 50,0000%00:00 (00:00)
15 Age of Wonders Oct 2010 $5.99N/A (N/A)100,000 .. 200,0000%00:00 (00:00)
16 East India Company Jul 31, 2009 $9.99N/A (N/A/67%)50,000 .. 100,0000%00:00 (00:00)
17 Age of Wonders II: The Wizard's Throne Oct 2010 $9.99N/A (N/A/86%)50,000 .. 100,0000%00:00 (00:00)
18 Patrician III Nov 18, 2010 $4.99N/A (N/A/75%)100,000 .. 200,0008.33%03:03 (01:01)
19 Swords and Soldiers HD Dec 2, 2010 $9.99N/A (N/A)200,000 .. 500,0000%00:00 (00:00)
20 XIII Century – Gold Edition Aug 28, 2009 $0.99N/A (N/A)50,000 .. 100,0000%00:00 (00:00)
21 Fantasy Wars Aug 6, 2010 $0.99N/A (N/A/67%)50,000 .. 100,0000%00:00 (00:00)
22 Dwarfs!? May 4, 2011 $9.99N/A (N/A)200,000 .. 500,0000%00:00 (00:00)
23 Imperium Romanum Gold Edition Oct 30, 2008 $9.99N/A (N/A/63%)100,000 .. 200,0000%00:00 (00:00)
24 Rush for Berlin Gold Oct 29, 2009 $4.99N/A (N/A/76%)20,000 .. 50,0000%00:00 (00:00)
25 Europa Universalis: Rome - Gold Edition Nov 19, 2008 $2.49N/A (N/A/79%)50,000 .. 100,0000%00:00 (00:00)
26 Sacraboar Nov 6, 2009 $2.99N/A (N/A)20,000 .. 50,0000%00:00 (00:00)
27 Grand Ages: Rome Mar 20, 2009 $9.99N/A (N/A/72%)200,000 .. 500,0000%00:00 (00:00)
28 Robin Hood: The Legend of Sherwood Nov 1, 2002 $7.99N/A (N/A/80%)100,000 .. 200,00010%00:03 (00:01)
29 Crusaders: Thy Kingdom Come Oct 8, 2009 $9.99N/A (N/A)20,000 .. 50,0000%00:00 (00:00)
30 Dungeons Feb 10, 2011 $9.99N/A (N/A/65%)200,000 .. 500,0000%00:00 (00:00)
31 Cossacks II: Napoleonic Wars Apr 26, 2005 $4.99N/A (N/A/73%)50,000 .. 100,0000%00:00 (00:00)
32 Viking: Battle for Asgard Oct 17, 2012 $14.99N/A (N/A)1,000,000 .. 2,000,0000%00:00 (00:00)
33 American Conquest Feb 7, 2003 $4.99N/A (N/A/76%)100,000 .. 200,0000%00:00 (00:00)
34 Conflict Desert Storm Sep 13, 2002 $6.99N/A (N/A/56%)100,000 .. 200,0000%00:00 (00:00)
35 American Conquest: Fight Back Sep 30, 2003 $4.99N/A (N/A/66%)100,000 .. 200,0000%00:00 (00:00)
36 Conquest of Elysium 3 Oct 24, 2012 $4.99N/A (N/A)50,000 .. 100,0000%00:00 (00:00)
37 Dungeons - The Dark Lord Sep 27, 2011 $19.99N/A (N/A/72%)100,000 .. 200,0000%00:00 (00:00)
38 Galactic Civilizations I: Ultimate Edition Mar 23, 2003 $9.99N/A (N/A/83%)100,000 .. 200,0000%00:00 (00:00)
39 Disciples III - Resurrection Oct 11, 2011 $14.99N/A (N/A/63%)100,000 .. 200,0000%00:00 (00:00)
40 Theatre of War 3: Korea Mar 24, 2011 $1.39N/A (N/A/49%)50,000 .. 100,0000%00:00 (00:00)
41 Real Warfare 2: Northern Crusades Nov 18, 2011 $0.99N/A (N/A)50,000 .. 100,0000%00:00 (00:00)
42 Fate of the World Feb 28, 2011 $9.99N/A (N/A/70%)50,000 .. 100,0000%00:00 (00:00)
43 Men of War: Condemned Heroes Apr 12, 2012 $1.59N/A (N/A/57%)100,000 .. 200,0000%00:00 (00:00)
44 Hydrophobia: Prophecy May 9, 2011 $4.99N/A (N/A/64%)200,000 .. 500,0000%00:00 (00:00)
45 Crusader Kings Complete Feb 14, 2012 $9.99N/A (N/A/73%)100,000 .. 200,0000%00:00 (00:00)
46 Demolition Inc. Sep 19, 2011 $5.99N/A (N/A)50,000 .. 100,0000%00:00 (00:00)
47 Arena Wars 2 Oct 12, 2012 $3.99N/A (N/A)20,000 .. 50,0000%00:00 (00:00)
48 Skyward Collapse May 23, 2013 $4.99N/A (N/A/64%)100,000 .. 200,0000%00:00 (00:00)
49 ORB Nov 8, 2002 $0.49N/A (N/A)20,000 .. 50,0000%00:00 (00:00)
50 Dominions 3: The Awakening Sep 10, 2013 $19.99N/A (N/A/82%)20,000 .. 50,0000%00:00 (00:00)
51 Disciples Sacred Lands Gold Oct 4, 1999 $7.99N/A (N/A)20,000 .. 50,0000%00:00 (00:00)
52 Earth 2140 Nov 15, 2013 $4.99N/A (N/A)200,000 .. 500,0003.75%04:40 (01:34)
53 Battle Academy Aug 4, 2010 $14.99N/A (N/A)20,000 .. 50,0000%00:00 (00:00)
54 Ground Control Anthology May 31, 2000 $4.99N/A (N/A/86%)20,000 .. 50,0000%00:00 (00:00)
55 Perimeter: Emperor's Testament Aug 29, 2006 $0.79N/A (N/A/72%)20,000 .. 50,0000%00:00 (00:00)
56 Ground Control II: Operation Exodus Jun 18, 2004 $4.99N/A (N/A/80%)20,000 .. 50,0000%00:00 (00:00)
57 Tiny Troopers Aug 24, 2012 $4.99N/A (N/A/57%)100,000 .. 200,0000%00:00 (00:00)
58 Silent Storm Gold Edition Sep 9, 2004 $9.99N/A (N/A/83%)100,000 .. 200,0000%00:00 (00:00)
59 Sang-Froid - Tales of Werewolves Apr 5, 2013 FreeN/A (N/A/79%)200,000 .. 500,0000%00:00 (00:00)
60 Void Destroyer Jan 20, 2015 $9.99N/A (N/A)50,000 .. 100,0000%00:00 (00:00)
61 Eador: Genesis Aug 7, 2009 $5.99N/A (N/A)50,000 .. 100,0000%00:00 (00:00)
62 Desperados: Wanted Dead or Alive Jul 23, 2001 $4.99N/A (N/A/78%)100,000 .. 200,0000%00:00 (00:00)
63 UFO: Afterlight Feb 8, 2007 $6.99N/A (N/A/71%)200,000 .. 500,0000%00:00 (00:00)
64 Praetorians Mar 10, 2003 $4.99N/A (N/A/78%)50,000 .. 100,0000%00:00 (00:00)
65 Joint Task Force Sep 12, 2006 $7.99N/A (N/A/68%)20,000 .. 50,0000%00:00 (00:00)
66 Men of War: Red Tide Nov 1, 2009 $0.99N/A (N/A/77%)200,000 .. 500,0000%00:00 (00:00)
67 Commandos: Beyond the Call of Duty Apr 7, 1999 $4.99N/A (N/A)500,000 .. 1,000,0000%00:00 (00:00)
68 Civilization IV: Warlords Jul 24, 2006 $4.99N/A (N/A/84%)1,000,000 .. 2,000,0002.27%26:16 (08:45)
69 Battlestations: Midway Jan 30, 2007 $6.99N/A (N/A/76%)200,000 .. 500,0000%00:00 (00:00)
70 Full Spectrum Warrior: Ten Hammers Mar 27, 2006 $9.99N/A (N/A/70%)100,000 .. 200,0000%00:00 (00:00)
71 Two Worlds II Castle Defense Jun 14, 2011 $9.99N/A (N/A)100,000 .. 200,0000%00:00 (00:00)
72 Rome: Total War - Alexander Jun 26, 2006 $12.99N/A (N/A/79%)500,000 .. 1,000,0000%00:00 (00:00)
73 X-COM: Apocalypse Jul 15, 1997 $4.99N/A (N/A)500,000 .. 1,000,0000%00:00 (00:00)
74 Cossacks: Art of War Mar 31, 2002 $4.99N/A (N/A)20,000 .. 50,0000%00:00 (00:00)
75 Darwinia Jul 14, 2005 $9.99N/A (N/A/84%)500,000 .. 1,000,0000%00:00 (00:00)
76 Cossacks: European Wars Apr 24, 2001 $4.99N/A (N/A/74%)100,000 .. 200,0000%00:00 (00:00)
77 Space Empires IV Deluxe Feb 7, 2006 $9.99N/A (N/A/79%)50,000 .. 100,0000%00:00 (00:00)
78 Cossacks II: Battle for Europe Jun 19, 2006 $4.99N/A (N/A/69%)100,000 .. 200,0000%00:00 (00:00)
79 Disciples II: Rise of the Elves Jul 6, 2006 $6.99N/A (N/A/80%)50,000 .. 100,0000%00:00 (00:00)
80 Vegas: Make It Big Dec 21, 2006 $0.49N/A (N/A)20,000 .. 50,0000%00:00 (00:00)
81 ThreadSpace: Hyperbol Jul 12, 2007 $4.99N/A (N/A)0 .. 20,0000%00:00 (00:00)
82 Evolution RTS Apr 4, 2014 N/AN/A (N/A)100,000 .. 200,0000%00:00 (00:00)
83 Legions of Ashworld Jul 4, 2014 $4.99N/A (N/A)20,000 .. 50,0000%00:00 (00:00)
84 Haegemonia: The Solon Heritage May 1, 2014 $4.99N/A (N/A)50,000 .. 100,0000%00:00 (00:00)
85 To End All Wars Aug 29, 2014 $39.99N/A (N/A/71%)0 .. 20,0000%00:00 (00:00)
86 Hero Generations Apr 10, 2015 $5.99N/A (N/A)20,000 .. 50,0000%00:00 (00:00)
87 Hell Nov 13, 2014 $29.99N/A (N/A)0 .. 20,0000%00:00 (00:00)
88 Brigade E5: New Jagged Union Oct 17, 2006 $0.79N/A (N/A/41%)20,000 .. 50,0000%00:00 (00:00)
89 Alea Jacta Est Sep 27, 2012 $24.99N/A (N/A)20,000 .. 50,0000%00:00 (00:00)
90 Rooks Keep Dec 5, 2014 $7.99N/A (N/A)0 .. 20,0000%00:00 (00:00)
91 Perimeter May 21, 2004 $0.79N/A (N/A/77%)20,000 .. 50,0000%00:00 (00:00)
92 Rush for Glory Jun 16, 2014 $14.99N/A (N/A)20,000 .. 50,0000%00:00 (00:00)
93 UFO: Aftershock Oct 21, 2005 $0.79N/A (N/A)100,000 .. 200,0000%00:00 (00:00)
94 Civil War II Sep 17, 2013 $39.99N/A (N/A)20,000 .. 50,0000%00:00 (00:00)
95 Aggression: Europe Under Fire May 10, 2007 $9.99N/A (N/A)20,000 .. 50,0000%00:00 (00:00)
96 War in a Box: Paper Tanks Jul 4, 2014 $4.99N/A (N/A)20,000 .. 50,0000%00:00 (00:00)
97 Marauder Sep 10, 2009 $9.99N/A (N/A)50,000 .. 100,0000%00:00 (00:00)
98 The Nightmare Cooperative Jul 16, 2014 $4.99N/A (N/A)50,000 .. 100,0000%00:00 (00:00)
99 Gods vs Humans Sep 5, 2013 $4.99N/A (N/A)20,000 .. 50,0000%00:00 (00:00)
100 World War I Jun 17, 2005 $0.99N/A (N/A)50,000 .. 100,0000%00:00 (00:00)
101 Fritz for Fun 13 Aug 12, 2013 $19.99N/A (N/A)20,000 .. 50,0000%00:00 (00:00)
102 AirMech Command Mar 8, 2017 $14.99N/A (N/A)0 .. 20,00050%00:27 (00:13)
103 Survivor Squad: Gauntlets Nov 16, 2015 $4.99N/A (N/A)20,000 .. 50,0000%00:00 (00:00)
104 Wyrmsun May 22, 2015 FreeN/A (N/A)20,000 .. 50,0000%00:00 (00:00)
105 Neocolonialism Nov 25, 2014 $2.99N/A (N/A)0 .. 20,0000%00:00 (00:00)
106 Nomad Fleet Jul 14, 2015 $4.99N/A (N/A)50,000 .. 100,0000%00:00 (00:00)
107 Seven Kingdoms 2 HD Feb 4, 2015 $9.99N/A (N/A)50,000 .. 100,0000%00:00 (00:00)
108 Tiestru Aug 20, 2014 $9.99N/A (N/A)0 .. 20,0000%00:00 (00:00)
109 SHOGUN: Total War - Collection Jun 13, 2000 $9.99N/A (N/A)50,000 .. 100,0000%00:00 (00:00)
110 Hunters Of The Dead Sep 4, 2014 $4.99N/A (N/A)0 .. 20,0000%00:00 (00:00)
111 BattleLore: Command Nov 25, 2014 $6.99N/A (N/A)0 .. 20,0000%00:00 (00:00)
112 Reprisal Universe Sep 15, 2014 $6.99N/A (N/A)20,000 .. 50,0000%00:00 (00:00)
113 UFHO2 Apr 1, 2014 FreeN/A (N/A)20,000 .. 50,0000%00:00 (00:00)
114 Magnifico Dec 2, 2014 $4.99N/A (N/A)0 .. 20,0000%00:00 (00:00)
115 Locoland Nov 22, 2003 $4.99N/A (N/A)0 .. 20,0000%00:00 (00:00)
116 Supreme Commander Feb 20, 2007 $12.99N/A (N/A/86%)1,000,000 .. 2,000,0000%00:00 (00:00)
117 Prison Tycoon 3: Lockdown Aug 1, 2007 $9.99N/A (N/A)20,000 .. 50,0000%00:00 (00:00)
118 Desperados 2: Cooper's Revenge May 2, 2006 $9.99N/A (N/A/66%)50,000 .. 100,0000%00:00 (00:00)
119 Heroes of Might & Magic V: Hammers of Fate Nov 14, 2006 $9.99N/A (N/A/66%)50,000 .. 100,0000%00:00 (00:00)
120 Codename: Panzers - Cold War Mar 10, 2009 $14.99N/A (N/A)20,000 .. 50,0000%00:00 (00:00)
121 Red Faction II Apr 9, 2003 $9.99N/A (N/A/64%)200,000 .. 500,0000%00:00 (00:00)
122 Space Trader: Merchant Marine Oct 23, 2008 $0.99N/A (N/A)100,000 .. 200,0000%00:00 (00:00)
123 Starscape Mar 27, 2003 $7.99N/A (N/A)0 .. 20,0000%00:00 (00:00)
124 Maelstrom: The Battle for Earth Begins Feb 20, 2007 $4.99N/A (N/A/58%)20,000 .. 50,0000%00:00 (00:00)
125 X-COM: Interceptor Jun 15, 1998 $4.99N/A (N/A)200,000 .. 500,0000%00:00 (00:00)
126 Perimeter 2: New Earth Feb 10, 2009 $14.99N/A (N/A/43%)0 .. 20,0000%00:00 (00:00)
127 X-COM: Enforcer Apr 19, 2001 $4.99N/A (N/A/65%)500,000 .. 1,000,0000%00:00 (00:00)
128 BC Kings Sep 15, 2008 $4.99N/A (N/A)20,000 .. 50,0000%00:00 (00:00)
129 Warhammer 40,000: Dawn of War – Winter Assault Jan 1, 2006 $12.99N/A (N/A)500,000 .. 1,000,0001.85%00:01 (00:00)
130 Port Royale 2 Apr 30, 2004 $4.99N/A (N/A/75%)50,000 .. 100,0000%00:00 (00:00)
131 Company of Heroes: Opposing Fronts Sep 27, 2007 $19.99N/A (N/A/87%)2,000,000 .. 5,000,0000%00:00 (00:00)
132 9th Company: Roots Of Terror Dec 3, 2009 $1.99N/A (N/A)20,000 .. 50,0000%00:00 (00:00)

Tags over time:

Access restricted.

This feature is only available to users with special access rights. Sorry.

If you want to proceed, you need to register or log in first and then back Steam Spy on Patreon. Look for Indie or Pro pledge.

Don't forget to use the same email as on Steam Spy!

Owners of this game also own:

Access restricted.

This feature is only available to users with special access rights. Sorry.

If you want to proceed, you need to register or log in first and then back Steam Spy on Patreon. Look for Indie or Pro pledge.

Don't forget to use the same email as on Steam Spy!

Playtime distribution:

Access restricted.

This feature is only available to users with special access rights. Sorry.

If you want to proceed, you need to register or log in first and then back Steam Spy on Patreon. Look for Indie or Pro pledge.

Don't forget to use the same email as on Steam Spy!

Playtime (2 weeks):

Access restricted.

This feature is only available to users with special access rights. Sorry.

If you want to proceed, you need to register or log in first and then back Steam Spy on Patreon. Look for Indie or Pro pledge.

Don't forget to use the same email as on Steam Spy!

User reviews:

Login required.

Please register or log in to see this information.